createdAt,value
2022-10-10T00:01:13.138Z,53.75
2022-10-10T00:03:40.829Z,53.28
2022-10-10T00:06:08.353Z,55.24
2022-10-10T00:08:35.728Z,56.57
2022-10-10T00:11:04.078Z,55.63
2022-10-10T00:13:31.578Z,54.85
2022-10-10T00:15:59.026Z,55.34
2022-10-10T00:18:26.626Z,54.18
2022-10-10T00:20:53.950Z,56.87
2022-10-10T00:23:21.403Z,52.58
2022-10-10T00:25:49.013Z,55.46
2022-10-10T00:28:16.471Z,55.17
2022-10-10T00:30:44.074Z,54.67
2022-10-10T00:33:11.921Z,55.05
2022-10-10T00:35:39.317Z,53.88
2022-10-10T00:38:06.768Z,54.33
2022-10-10T00:40:36.377Z,55.53
2022-10-10T00:43:03.690Z,53.29
2022-10-10T00:45:40.235Z,52.10
2022-10-10T00:48:31.822Z,55.05
2022-10-10T00:51:03.618Z,52.84
2022-10-10T00:53:34.020Z,56.89
2022-10-10T00:56:01.688Z,55.70
2022-10-10T00:58:29.020Z,51.64
2022-10-10T01:00:56.771Z,53.34
2022-10-10T01:03:24.125Z,53.04
2022-10-10T01:05:51.489Z,50.64
2022-10-10T01:08:19.643Z,53.57
2022-10-10T01:11:12.274Z,55.13
2022-10-10T01:13:55.197Z,56.81
2022-10-10T01:16:47.622Z,51.01
2022-10-10T01:19:24.167Z,52.34
2022-10-10T01:21:58.138Z,52.95
2022-10-10T01:24:49.387Z,50.91
2022-10-10T01:27:22.341Z,50.72
2022-10-10T01:29:54.440Z,55.42
2022-10-10T01:32:23.748Z,56.23
2022-10-10T01:35:07.019Z,55.53
2022-10-10T01:37:42.190Z,54.58
2022-10-10T01:40:12.144Z,55.97
2022-10-10T01:42:42.006Z,54.34
2022-10-10T01:45:09.845Z,55.67
2022-10-10T01:47:37.218Z,53.41
2022-10-10T01:50:07.813Z,56.28
2022-10-10T01:53:03.319Z,55.81
2022-10-10T01:55:39.812Z,52.71
2022-10-10T01:58:07.251Z,51.83
2022-10-10T02:00:45.646Z,56.35
2022-10-10T02:03:31.020Z,55.06
2022-10-10T02:06:37.186Z,54.94
2022-10-10T02:09:07.425Z,53.34
2022-10-10T02:11:36.497Z,57.64
2022-10-10T02:14:21.171Z,53.09
2022-10-10T02:16:50.133Z,53.05
2022-10-10T02:19:18.990Z,51.82
2022-10-10T02:21:47.748Z,52.42
2022-10-10T02:24:15.334Z,54.85
2022-10-10T02:26:45.099Z,50.30
2022-10-10T02:29:17.650Z,53.28
2022-10-10T02:31:53.194Z,54.40
2022-10-10T02:34:25.905Z,53.43
2022-10-10T02:36:58.621Z,55.63
2022-10-10T02:39:28.294Z,54.93
2022-10-10T02:41:56.013Z,52.82
2022-10-10T02:44:23.372Z,53.11
2022-10-10T02:46:50.723Z,56.63
2022-10-10T02:49:27.834Z,53.75
2022-10-10T02:51:55.235Z,54.36
2022-10-10T02:54:22.929Z,51.76
2022-10-10T02:56:50.550Z,54.51
2022-10-10T02:59:17.929Z,56.85
2022-10-10T03:01:45.576Z,51.51
2022-10-10T03:04:13.029Z,57.01
2022-10-10T03:06:40.379Z,53.23
2022-10-10T03:09:07.985Z,55.12
2022-10-10T03:11:35.323Z,55.24
2022-10-10T03:14:02.753Z,52.88
2022-10-10T03:16:30.342Z,54.03
2022-10-10T03:18:57.641Z,54.07
2022-10-10T03:21:24.973Z,52.78
2022-10-10T03:23:52.572Z,56.17
2022-10-10T03:26:19.884Z,55.19
2022-10-10T03:28:47.260Z,54.55
2022-10-10T03:31:14.890Z,55.58
2022-10-10T03:33:42.210Z,57.59
2022-10-10T03:36:09.592Z,52.13
2022-10-10T03:38:37.202Z,52.45
2022-10-10T03:41:04.538Z,57.67
2022-10-10T03:43:31.992Z,57.99
2022-10-10T03:45:59.582Z,53.16
2022-10-10T03:48:26.890Z,57.88
2022-10-10T03:50:54.209Z,54.48
2022-10-10T03:53:22.302Z,53.94
2022-10-10T03:55:49.650Z,53.66
2022-10-10T03:58:20.160Z,55.94
2022-10-10T04:00:58.657Z,55.23
2022-10-10T04:03:26.466Z,55.08
2022-10-10T04:05:53.820Z,52.49
2022-10-10T04:08:21.141Z,57.23
2022-10-10T04:10:49.737Z,55.27
2022-10-10T04:13:17.169Z,55.31
2022-10-10T04:15:44.662Z,57.71
2022-10-10T04:18:12.331Z,54.17
2022-10-10T04:20:39.791Z,54.94
2022-10-10T04:23:07.102Z,57.24
2022-10-10T04:25:34.678Z,53.43
2022-10-10T04:28:02.140Z,54.75
2022-10-10T04:30:31.550Z,55.64
2022-10-10T04:32:59.346Z,54.69
2022-10-10T04:35:26.711Z,55.90
2022-10-10T04:37:54.049Z,55.44
2022-10-10T04:40:26.235Z,57.68
2022-10-10T04:42:54.616Z,54.50
2022-10-10T04:45:22.816Z,53.08
2022-10-10T04:47:50.199Z,54.66
2022-10-10T04:50:17.636Z,53.74
2022-10-10T04:52:45.271Z,56.19
2022-10-10T04:55:12.821Z,55.92
2022-10-10T04:57:40.187Z,53.70
2022-10-10T05:00:09.276Z,57.99
2022-10-10T05:02:36.679Z,55.25
2022-10-10T05:05:04.429Z,56.85
2022-10-10T05:07:32.009Z,56.01
2022-10-10T05:09:59.507Z,54.29
2022-10-10T05:12:26.867Z,57.98
2022-10-10T05:14:54.474Z,53.33
2022-10-10T05:17:21.800Z,56.34
2022-10-10T05:19:49.244Z,55.46
2022-10-10T05:22:16.828Z,53.76
2022-10-10T05:24:44.204Z,58.17
2022-10-10T05:27:11.556Z,55.41
2022-10-10T05:29:39.132Z,58.59
2022-10-10T05:32:10.044Z,53.43
2022-10-10T05:34:38.278Z,54.97
2022-10-10T05:37:05.953Z,56.77
2022-10-10T05:39:33.338Z,56.22
2022-10-10T05:42:00.746Z,57.72
2022-10-10T05:44:28.479Z,54.35
2022-10-10T05:46:55.862Z,52.70
2022-10-10T05:49:23.635Z,54.36
2022-10-10T05:51:51.302Z,53.62
2022-10-10T05:54:18.656Z,53.05
2022-10-10T05:56:46.514Z,52.93
2022-10-10T05:59:14.234Z,54.30
2022-10-10T06:01:41.582Z,52.08
2022-10-10T06:04:09.226Z,54.86
2022-10-10T06:06:36.549Z,54.16
2022-10-10T06:09:03.906Z,51.84
2022-10-10T06:11:31.581Z,51.21
2022-10-10T06:13:58.893Z,55.40
2022-10-10T06:16:26.950Z,54.67
2022-10-10T06:18:56.702Z,53.95
2022-10-10T06:21:24.242Z,52.74
2022-10-10T06:23:51.672Z,52.22
2022-10-10T06:26:19.326Z,54.00
2022-10-10T06:28:46.755Z,51.90
2022-10-10T06:31:14.274Z,52.08
2022-10-10T06:33:43.244Z,51.78
2022-10-10T06:36:10.673Z,53.30
2022-10-10T06:38:38.807Z,54.46
2022-10-10T06:41:06.690Z,52.82
2022-10-10T06:43:34.250Z,55.05
2022-10-10T06:46:01.724Z,52.83
2022-10-10T06:48:35.004Z,56.29
2022-10-10T06:51:04.929Z,53.80
2022-10-10T06:53:32.769Z,52.10
2022-10-10T06:56:00.162Z,53.67
2022-10-10T06:58:27.995Z,54.74
2022-10-10T07:00:57.256Z,53.86
2022-10-10T07:03:24.838Z,55.83
2022-10-10T07:05:52.805Z,51.36
2022-10-10T07:08:20.705Z,53.56
2022-10-10T07:10:48.090Z,51.14
2022-10-10T07:13:15.566Z,52.06
2022-10-10T07:15:43.251Z,51.89
2022-10-10T07:18:10.925Z,52.09
2022-10-10T07:20:39.025Z,52.77
2022-10-10T07:23:06.649Z,54.06
2022-10-10T07:25:34.055Z,52.54
2022-10-10T07:28:01.373Z,53.29
2022-10-10T07:30:29.076Z,50.61
2022-10-10T07:32:56.425Z,49.42
2022-10-10T07:35:23.823Z,49.71
2022-10-10T07:37:55.428Z,52.59
2022-10-10T07:40:22.998Z,50.91
2022-10-10T07:42:50.970Z,50.69
2022-10-10T07:45:18.643Z,51.35
2022-10-10T07:47:46.087Z,49.83
2022-10-10T07:50:13.963Z,50.65
2022-10-10T07:52:41.611Z,50.77
2022-10-10T07:55:09.269Z,50.79
2022-10-10T07:57:36.912Z,51.27
2022-10-10T08:00:08.723Z,50.55
2022-10-10T08:02:38.939Z,51.79
2022-10-10T08:05:06.755Z,49.43
2022-10-10T08:07:34.432Z,50.70
2022-10-10T08:10:02.591Z,49.28
2022-10-10T08:12:30.641Z,50.15
2022-10-10T08:15:02.013Z,53.05
2022-10-10T08:17:32.623Z,49.23
2022-10-10T08:20:09.274Z,49.13
2022-10-10T08:22:40.749Z,50.50
2022-10-10T08:25:12.116Z,50.46
2022-10-10T08:27:39.783Z,48.93
2022-10-10T08:30:07.407Z,48.41
2022-10-10T08:32:34.860Z,51.73
2022-10-10T08:35:02.465Z,50.39
2022-10-10T08:37:33.976Z,48.38
2022-10-10T08:40:05.227Z,48.71
2022-10-10T08:42:36.698Z,51.84
2022-10-10T08:45:11.669Z,47.07
2022-10-10T08:47:46.924Z,46.94
2022-10-10T08:50:21.106Z,49.96
2022-10-10T08:52:58.253Z,47.02
2022-10-10T08:55:33.110Z,50.39
2022-10-10T08:58:16.248Z,51.12
2022-10-10T09:01:07.784Z,47.62
2022-10-10T09:03:43.453Z,47.00
2022-10-10T09:06:43.980Z,46.47
2022-10-10T09:09:36.357Z,46.18
2022-10-10T09:12:28.533Z,45.14
2022-10-10T09:15:11.319Z,45.10
2022-10-10T09:17:48.691Z,51.11
2022-10-10T09:20:27.841Z,48.41
2022-10-10T09:22:57.379Z,45.58
2022-10-10T09:25:31.702Z,49.30
2022-10-10T09:28:10.983Z,51.93
2022-10-10T09:30:42.222Z,44.46
2022-10-10T09:33:32.009Z,44.82
2022-10-10T09:35:59.735Z,46.14
2022-10-10T09:38:34.608Z,46.53
2022-10-10T09:41:23.422Z,48.41
2022-10-10T09:43:57.823Z,44.14
2022-10-10T09:46:25.932Z,43.75
2022-10-10T09:48:53.358Z,41.78
2022-10-10T09:51:20.803Z,42.81
2022-10-10T09:53:49.029Z,44.07
2022-10-10T09:56:18.596Z,42.41
2022-10-10T09:58:47.604Z,45.41
2022-10-10T10:01:15.430Z,42.10
2022-10-10T10:03:43.250Z,43.55
2022-10-10T10:06:14.777Z,45.43
2022-10-10T10:08:42.763Z,43.88
2022-10-10T10:11:28.765Z,42.00
2022-10-10T10:13:56.641Z,44.95
2022-10-10T10:16:36.548Z,43.34
2022-10-10T10:19:04.202Z,43.00
2022-10-10T10:21:32.412Z,42.51
2022-10-10T10:24:01.065Z,43.08
2022-10-10T10:26:40.327Z,40.85
2022-10-10T10:29:23.973Z,41.34
2022-10-10T10:31:57.152Z,42.64
2022-10-10T10:34:47.228Z,40.75
2022-10-10T10:37:21.922Z,40.41
2022-10-10T10:40:09.440Z,43.57
2022-10-10T10:42:48.908Z,40.61
2022-10-10T10:45:29.024Z,40.95
2022-10-10T10:48:21.879Z,45.21
2022-10-10T10:50:53.340Z,44.58
2022-10-10T10:53:40.721Z,45.89
2022-10-10T10:56:56.438Z,42.00
2022-10-10T11:00:21.952Z,41.71
2022-10-10T11:03:27.959Z,40.77
2022-10-10T11:06:16.736Z,43.27
2022-10-10T11:08:53.551Z,40.91
2022-10-10T11:11:35.604Z,40.11
2022-10-10T11:14:12.035Z,42.15
2022-10-10T11:16:48.845Z,44.08
2022-10-10T11:19:23.924Z,39.33
2022-10-10T11:22:09.065Z,40.32
2022-10-10T11:24:44.636Z,41.98
2022-10-10T11:27:30.535Z,42.88
2022-10-10T11:30:12.471Z,38.88
2022-10-10T11:33:12.678Z,38.81
2022-10-10T11:35:44.837Z,38.47
2022-10-10T11:38:19.771Z,42.20
2022-10-10T11:41:05.721Z,38.78
2022-10-10T11:43:49.556Z,38.94
2022-10-10T11:46:56.457Z,40.13
2022-10-10T11:49:43.472Z,38.64
2022-10-10T11:52:34.831Z,40.11
2022-10-10T11:55:06.575Z,40.90
2022-10-10T11:57:41.474Z,39.76
2022-10-10T12:00:16.098Z,41.88
2022-10-10T12:02:45.008Z,42.34
2022-10-10T12:05:19.910Z,45.36
2022-10-10T12:07:57.767Z,39.64
2022-10-10T12:10:27.892Z,41.40
2022-10-10T12:12:57.031Z,40.02
2022-10-10T12:15:36.215Z,38.71
2022-10-10T12:18:07.824Z,38.71
2022-10-10T12:20:35.758Z,39.31
2022-10-10T12:23:23.510Z,41.59
2022-10-10T12:25:51.483Z,39.34
2022-10-10T12:28:21.644Z,38.81
2022-10-10T12:30:58.131Z,37.64
2022-10-10T12:33:46.429Z,38.58
2022-10-10T12:36:19.567Z,40.10
2022-10-10T12:39:03.225Z,39.80
2022-10-10T12:41:47.007Z,37.81
2022-10-10T12:44:14.921Z,36.68
2022-10-10T12:46:42.918Z,36.49
2022-10-10T12:49:21.321Z,36.09
2022-10-10T12:52:20.094Z,37.69
2022-10-10T12:54:47.542Z,36.19
2022-10-10T12:57:23.034Z,35.69
2022-10-10T12:59:50.358Z,39.41
2022-10-10T13:02:25.641Z,37.59
2022-10-10T13:04:55.295Z,40.57
2022-10-10T13:07:22.932Z,40.11
2022-10-10T13:09:51.678Z,35.10
2022-10-10T13:12:27.054Z,37.09
2022-10-10T13:14:54.973Z,37.35
2022-10-10T13:17:24.698Z,33.43
2022-10-10T13:19:52.909Z,32.49
2022-10-10T13:22:20.797Z,32.72
2022-10-10T13:24:48.152Z,31.96
2022-10-10T13:27:21.099Z,32.07
2022-10-10T13:29:48.727Z,34.17
2022-10-10T13:32:18.446Z,31.51
2022-10-10T13:34:48.703Z,32.20
2022-10-10T13:37:17.128Z,33.60
2022-10-10T13:39:44.698Z,34.54
2022-10-10T13:42:30.816Z,33.44
2022-10-10T13:45:00.422Z,33.70
2022-10-10T13:48:15.460Z,31.63
2022-10-10T13:50:43.013Z,30.77
2022-10-10T13:53:29.110Z,33.16
2022-10-10T13:55:59.934Z,32.14
2022-10-10T13:58:29.103Z,32.91
2022-10-10T14:00:57.694Z,34.20
2022-10-10T14:03:25.327Z,33.39
2022-10-10T14:05:52.749Z,32.77
2022-10-10T14:08:23.923Z,32.11
2022-10-10T14:11:00.998Z,33.49
2022-10-10T14:13:29.283Z,34.44
2022-10-10T14:16:13.140Z,34.49
2022-10-10T14:18:40.603Z,35.23
2022-10-10T14:21:08.668Z,32.97
2022-10-10T14:23:39.141Z,33.86
2022-10-10T14:26:08.003Z,34.06
2022-10-10T14:28:37.259Z,32.84
2022-10-10T14:31:05.312Z,32.27
2022-10-10T14:33:32.857Z,33.40
2022-10-10T14:36:00.504Z,33.04
2022-10-10T14:38:27.869Z,33.50
2022-10-10T14:40:55.539Z,32.78
2022-10-10T14:43:24.465Z,33.35
2022-10-10T14:45:52.563Z,33.34
2022-10-10T14:48:20.060Z,33.93
2022-10-10T14:50:48.026Z,34.93
2022-10-10T14:53:15.386Z,34.63
2022-10-10T14:55:43.715Z,34.29
2022-10-10T14:58:16.462Z,35.05
2022-10-10T15:00:43.931Z,36.32
2022-10-10T15:03:11.598Z,35.89
2022-10-10T15:05:39.108Z,35.18
2022-10-10T15:08:07.082Z,34.73
2022-10-10T15:10:35.368Z,35.52
2022-10-10T15:13:03.261Z,37.10
2022-10-10T15:15:30.641Z,37.03
2022-10-10T15:17:58.714Z,36.67
2022-10-10T15:20:31.199Z,37.47
2022-10-10T15:23:04.219Z,37.78
2022-10-10T15:25:34.002Z,39.24
2022-10-10T15:28:02.642Z,40.43
2022-10-10T15:30:30.128Z,38.57
2022-10-10T15:32:57.515Z,37.93
2022-10-10T15:35:25.156Z,38.02
2022-10-10T15:37:52.513Z,38.48
2022-10-10T15:40:22.206Z,38.44
2022-10-10T15:42:49.930Z,38.75
2022-10-10T15:45:31.345Z,39.17
2022-10-10T15:48:05.381Z,39.29
2022-10-10T15:50:36.015Z,39.33
2022-10-10T15:53:03.381Z,39.89
2022-10-10T15:55:30.997Z,40.18
2022-10-10T15:57:58.615Z,41.06
2022-10-10T16:00:26.395Z,39.32
2022-10-10T16:02:54.037Z,39.40
2022-10-10T16:05:21.501Z,39.90
2022-10-10T16:07:49.943Z,40.44
2022-10-10T16:10:17.780Z,41.18
2022-10-10T16:12:45.120Z,41.76
2022-10-10T16:15:12.566Z,42.33
2022-10-10T16:17:40.202Z,43.19
2022-10-10T16:20:07.962Z,44.03
2022-10-10T16:22:35.282Z,44.04
2022-10-10T16:25:21.206Z,44.65
2022-10-10T16:27:49.556Z,45.09
2022-10-10T16:30:17.366Z,45.52
2022-10-10T16:32:44.691Z,45.82
2022-10-10T16:35:12.042Z,46.63
2022-10-10T16:37:39.660Z,47.55
2022-10-10T16:40:07.695Z,47.16
2022-10-10T16:42:35.034Z,47.46
2022-10-10T16:45:02.680Z,47.79
2022-10-10T16:47:30.676Z,47.18
2022-10-10T16:49:57.969Z,47.47
2022-10-10T16:52:25.575Z,47.65
2022-10-10T16:54:52.899Z,47.77
2022-10-10T16:57:20.273Z,48.11
2022-10-10T16:59:47.876Z,48.53
2022-10-10T17:02:15.204Z,49.79
2022-10-10T17:04:42.627Z,45.83
2022-10-10T17:07:10.203Z,48.48
2022-10-10T17:09:37.521Z,46.21
2022-10-10T17:12:05.053Z,45.38
2022-10-10T17:14:32.636Z,47.25
2022-10-10T17:17:11.473Z,46.78
2022-10-10T17:19:39.591Z,46.82
2022-10-10T17:22:06.935Z,46.95
2022-10-10T17:24:34.465Z,48.96
2022-10-10T17:27:02.122Z,47.67
2022-10-10T17:29:30.848Z,46.30
2022-10-10T17:32:00.623Z,46.86
2022-10-10T17:34:31.807Z,48.60
2022-10-10T17:36:59.183Z,47.69
2022-10-10T17:39:26.496Z,47.94
2022-10-10T17:41:54.140Z,49.25
2022-10-10T17:44:21.563Z,47.98
2022-10-10T17:46:50.438Z,49.46
2022-10-10T17:49:19.309Z,50.36
2022-10-10T17:51:46.751Z,50.66
2022-10-10T17:54:14.075Z,50.96
2022-10-10T17:56:44.507Z,50.67
2022-10-10T17:59:11.869Z,49.79
2022-10-10T18:01:39.756Z,50.18
2022-10-10T18:04:07.492Z,49.67
2022-10-10T18:06:36.356Z,50.21
2022-10-10T18:09:03.822Z,50.76
2022-10-10T18:11:31.567Z,51.07
2022-10-10T18:14:01.900Z,51.72
2022-10-10T18:16:32.286Z,51.75
2022-10-10T18:19:00.101Z,52.30
2022-10-10T18:21:27.489Z,52.35
2022-10-10T18:23:54.843Z,52.65
2022-10-10T18:26:24.246Z,52.51
2022-10-10T18:28:55.691Z,53.09
2022-10-10T18:31:28.387Z,52.87
2022-10-10T18:33:55.783Z,53.33
2022-10-10T18:36:24.406Z,53.00
2022-10-10T18:38:51.766Z,53.61
2022-10-10T18:41:21.275Z,53.47
2022-10-10T18:43:48.976Z,53.64
2022-10-10T18:46:18.401Z,53.59
2022-10-10T18:48:50.071Z,53.54
2022-10-10T18:51:24.084Z,53.36
2022-10-10T18:53:53.068Z,53.70
2022-10-10T18:56:24.439Z,53.97
2022-10-10T18:58:53.768Z,53.49
2022-10-10T19:01:24.921Z,54.12
2022-10-10T19:03:52.822Z,53.79
2022-10-10T19:06:20.198Z,54.41
2022-10-10T19:08:47.800Z,54.51
2022-10-10T19:11:26.418Z,54.73
2022-10-10T19:13:54.047Z,55.00
2022-10-10T19:16:21.880Z,54.89
2022-10-10T19:18:49.185Z,54.94
2022-10-10T19:21:16.827Z,54.77
2022-10-10T19:23:44.163Z,54.89
2022-10-10T19:26:13.097Z,55.03
2022-10-10T19:28:40.989Z,54.46
2022-10-10T19:31:12.950Z,54.95
2022-10-10T19:33:40.811Z,55.00
2022-10-10T19:36:11.589Z,54.17
2022-10-10T19:38:39.793Z,54.93
2022-10-10T19:41:08.654Z,54.43
2022-10-10T19:43:36.220Z,54.37
2022-10-10T19:46:05.574Z,54.84
2022-10-10T19:48:33.721Z,55.18
2022-10-10T19:51:04.305Z,55.44
2022-10-10T19:53:33.406Z,55.16
2022-10-10T19:56:04.874Z,54.64
2022-10-10T19:58:32.562Z,54.71
2022-10-10T20:00:59.926Z,53.72
2022-10-10T20:03:27.572Z,54.16
2022-10-10T20:06:00.219Z,54.56
2022-10-10T20:08:28.532Z,54.56
2022-10-10T20:10:55.851Z,54.98
2022-10-10T20:13:23.219Z,54.88
2022-10-10T20:15:51.147Z,55.38
2022-10-10T20:18:19.901Z,55.51
2022-10-10T20:20:49.654Z,55.59
2022-10-10T20:23:18.489Z,56.11
2022-10-10T20:25:45.797Z,55.69
2022-10-10T20:28:17.360Z,56.57
2022-10-10T20:30:48.516Z,56.37
2022-10-10T20:33:16.720Z,57.02
2022-10-10T20:35:44.116Z,57.17
2022-10-10T20:38:12.191Z,56.61
2022-10-10T20:40:40.080Z,57.20
2022-10-10T20:43:07.395Z,57.61
2022-10-10T20:45:36.374Z,57.84
2022-10-10T20:48:04.647Z,57.72
2022-10-10T20:50:36.020Z,58.37
2022-10-10T20:53:03.959Z,58.09
2022-10-10T20:55:31.717Z,58.30
2022-10-10T20:57:59.388Z,58.36
2022-10-10T21:00:26.987Z,58.31
2022-10-10T21:02:57.715Z,58.47
2022-10-10T21:05:25.075Z,58.43
2022-10-10T21:07:52.730Z,58.27
2022-10-10T21:10:20.106Z,58.25
2022-10-10T21:12:47.467Z,58.09
2022-10-10T21:15:15.105Z,57.71
2022-10-10T21:17:42.542Z,57.36
2022-10-10T21:20:10.230Z,57.83
2022-10-10T21:22:37.799Z,57.84
2022-10-10T21:25:05.765Z,58.26
2022-10-10T21:27:33.078Z,58.06
2022-10-10T21:30:00.648Z,57.92
2022-10-10T21:32:28.005Z,57.86
2022-10-10T21:34:56.584Z,57.90
2022-10-10T21:37:27.073Z,57.88
2022-10-10T21:39:54.443Z,57.81
2022-10-10T21:42:21.794Z,57.54
2022-10-10T21:44:49.377Z,57.83
2022-10-10T21:47:16.696Z,58.00
2022-10-10T21:49:44.144Z,58.20
2022-10-10T21:52:11.857Z,58.21
2022-10-10T21:54:39.292Z,58.49
2022-10-10T21:57:06.617Z,58.57
2022-10-10T21:59:34.214Z,59.05
2022-10-10T22:02:01.563Z,58.98
2022-10-10T22:04:29.319Z,59.38
2022-10-10T22:06:56.676Z,58.98
2022-10-10T22:09:23.983Z,59.06
2022-10-10T22:11:51.556Z,59.21
2022-10-10T22:14:18.876Z,58.98
2022-10-10T22:16:46.240Z,57.63
2022-10-10T22:19:13.829Z,58.92
2022-10-10T22:21:41.353Z,59.42
2022-10-10T22:24:08.719Z,60.19
2022-10-10T22:26:36.405Z,59.46
2022-10-10T22:29:04.072Z,59.40
2022-10-10T22:31:31.452Z,60.46
2022-10-10T22:33:59.093Z,60.57
2022-10-10T22:36:26.457Z,59.82
2022-10-10T22:38:53.809Z,60.32
2022-10-10T22:41:21.467Z,61.47
2022-10-10T22:43:49.681Z,61.04
2022-10-10T22:46:16.995Z,60.07
2022-10-10T22:48:44.592Z,59.60
2022-10-10T22:51:13.932Z,60.18
2022-10-10T22:53:41.774Z,59.92
2022-10-10T22:56:10.112Z,59.74
2022-10-10T22:58:37.423Z,59.84
2022-10-10T23:01:10.633Z,59.69
2022-10-10T23:03:38.253Z,60.33
2022-10-10T23:06:06.161Z,60.36
2022-10-10T23:08:33.847Z,60.10
2022-10-10T23:11:01.626Z,59.72
2022-10-10T23:13:28.948Z,59.75
2022-10-10T23:15:56.342Z,59.43
2022-10-10T23:18:23.997Z,59.35
2022-10-10T23:20:51.305Z,59.18
2022-10-10T23:23:18.893Z,59.77
2022-10-10T23:25:46.709Z,60.63
2022-10-10T23:28:14.454Z,60.45
2022-10-10T23:30:42.492Z,60.25
2022-10-10T23:33:10.195Z,60.12
2022-10-10T23:35:37.758Z,60.05
2022-10-10T23:38:05.477Z,60.38
2022-10-10T23:40:33.904Z,60.49
2022-10-10T23:43:01.382Z,60.43
2022-10-10T23:45:28.683Z,60.42
2022-10-10T23:47:56.323Z,59.74
2022-10-10T23:50:23.657Z,60.18
2022-10-10T23:52:50.975Z,60.88
2022-10-10T23:55:18.570Z,60.20
2022-10-10T23:57:45.893Z,60.47
